Time;durP1;ratioP1;P1;durP2;ratioP2;P2;SDS_P1;SDS_P2;PMS_P1;PMS_P2;Temp;Humidity;BMP_temperature;BMP_pressure;BME280_temperature;BME280_humidity;BME280_pressure;Samples;Min_cycle;Max_cycle;Signal;HPM_P1;HPM_P2
2023/03/17 00:01:43;;;;;;;;;47.25;41.25;;;;;;;;5055613;28;45483;-58
2023/03/17 00:04:12;;;;;;;;;42.00;37.25;;;;;;;;5055672;28;45525;-59
2023/03/17 00:06:38;;;;;;;;;42.50;36.00;;;;;;;;5055755;28;45661;-61
2023/03/17 00:09:06;;;;;;;;;38.67;33.00;;;;;;;;5055416;28;46042;-58
2023/03/17 00:11:31;;;;;;;;;33.00;30.00;;;;;;;;5055489;28;45567;-59
2023/03/17 00:13:56;;;;;;;;;30.00;29.67;;;;;;;;5037435;28;45643;-59
2023/03/17 00:16:24;;;;;;;;;29.67;27.67;;;;;;;;5055652;28;45344;-59
2023/03/17 00:18:50;;;;;;;;;28.33;26.33;;;;;;;;5055432;28;45460;-59
2023/03/17 00:21:18;;;;;;;;;22.00;22.00;;;;;;;;5055421;28;45526;-59
2023/03/17 00:23:47;;;;;;;;;21.67;19.00;;;;;;;;5055318;28;45640;-59
2023/03/17 00:26:13;;;;;;;;;17.67;17.67;;;;;;;;5054711;28;45506;-59
2023/03/17 00:28:38;;;;;;;;;18.00;15.67;;;;;;;;5055189;28;45557;-58
2023/03/17 00:31:12;;;;;;;;;15.33;15.00;;;;;;;;5054836;28;45522;-59
2023/03/17 00:33:37;;;;;;;;;13.33;13.33;;;;;;;;5037322;28;45596;-59
2023/03/17 00:36:02;;;;;;;;;15.67;13.67;;;;;;;;5036938;28;45416;-58
2023/03/17 00:38:28;;;;;;;;;14.00;13.67;;;;;;;;5054938;28;46118;-59
2023/03/17 00:40:54;;;;;;;;;14.33;13.00;;;;;;;;5054942;28;45527;-59
2023/03/17 00:43:19;;;;;;;;;16.67;13.67;;;;;;;;5055091;28;45571;-59
2023/03/17 00:45:45;;;;;;;;;15.67;14.67;;;;;;;;5055462;28;45482;-59
2023/03/17 00:48:19;;;;;;;;;15.00;13.67;;;;;;;;5055177;28;45506;-59
2023/03/17 00:50:46;;;;;;;;;13.33;13.00;;;;;;;;5041960;28;45511;-59
2023/03/17 00:53:12;;;;;;;;;14.00;11.33;;;;;;;;5053953;28;45581;-59
2023/03/17 00:55:38;;;;;;;;;12.00;12.00;;;;;;;;5036702;28;45474;-59
2023/03/17 00:58:10;;;;;;;;;11.67;11.67;;;;;;;;5054724;28;46172;-59
2023/03/17 01:00:35;;;;;;;;;12.67;12.67;;;;;;;;5054708;28;45384;-59
2023/03/17 01:03:01;;;;;;;;;10.00;10.00;;;;;;;;5054871;28;45563;-59
2023/03/17 01:05:26;;;;;;;;;11.00;11.00;;;;;;;;5054523;28;45645;-59
2023/03/17 01:07:56;;;;;;;;;10.00;10.00;;;;;;;;5054633;28;46392;-59
2023/03/17 01:10:25;;;;;;;;;14.33;11.33;;;;;;;;5053613;28;45478;-59
2023/03/17 01:12:52;;;;;;;;;13.00;13.00;;;;;;;;5054743;28;45542;-59
2023/03/17 01:15:18;;;;;;;;;12.33;12.00;;;;;;;;5054651;28;45677;-59
2023/03/17 01:17:44;;;;;;;;;11.00;11.00;;;;;;;;5053868;28;45958;-59
2023/03/17 01:20:15;;;;;;;;;13.33;12.67;;;;;;;;5036201;28;45446;-59
2023/03/17 01:22:40;;;;;;;;;14.67;14.67;;;;;;;;5053680;28;45574;-59
2023/03/17 01:25:06;;;;;;;;;9.67;9.33;;;;;;;;5054549;28;45529;-59
2023/03/17 01:27:35;;;;;;;;;11.33;11.33;;;;;;;;5054248;28;45469;-59
2023/03/17 01:30:01;;;;;;;;;12.00;12.00;;;;;;;;5054221;28;45447;-58
2023/03/17 01:32:27;;;;;;;;;11.00;11.00;;;;;;;;5035887;28;45502;-59
2023/03/17 01:34:52;;;;;;;;;13.00;11.33;;;;;;;;5055823;28;45658;-59
2023/03/17 01:37:17;;;;;;;;;13.67;12.67;;;;;;;;5057474;27;46311;-59
2023/03/17 01:39:42;;;;;;;;;14.67;12.67;;;;;;;;5066673;28;45395;-58
2023/03/17 01:42:07;;;;;;;;;13.00;13.00;;;;;;;;5063300;27;45532;-59
2023/03/17 01:44:33;;;;;;;;;13.33;12.33;;;;;;;;5071316;27;45545;-59
2023/03/17 01:46:59;;;;;;;;;12.67;12.67;;;;;;;;5056050;28;46936;-58
2023/03/17 01:49:34;;;;;;;;;11.00;11.00;;;;;;;;5055602;28;45489;-59
2023/03/17 01:52:13;;;;;;;;;12.00;12.00;;;;;;;;5038297;28;45506;-59
2023/03/17 01:54:51;;;;;;;;;11.00;11.00;;;;;;;;5054289;28;45625;-59
2023/03/17 01:57:22;;;;;;;;;13.00;12.67;;;;;;;;5070589;27;46271;-59
2023/03/17 01:59:49;;;;;;;;;14.00;12.00;;;;;;;;5074254;27;45757;-59
2023/03/17 02:02:18;;;;;;;;;12.00;11.33;;;;;;;;5074326;27;45442;-59
2023/03/17 02:04:44;;;;;;;;;12.00;12.00;;;;;;;;5073969;28;45490;-59
2023/03/17 02:07:10;;;;;;;;;12.67;12.67;;;;;;;;5067665;27;46245;-59
2023/03/17 02:09:35;;;;;;;;;9.00;9.00;;;;;;;;5066262;27;45534;-60
2023/03/17 02:12:02;;;;;;;;;12.67;12.67;;;;;;;;5073914;28;45415;-59
2023/03/17 02:14:28;;;;;;;;;12.67;12.67;;;;;;;;5074240;28;45637;-59
2023/03/17 02:16:53;;;;;;;;;16.00;11.33;;;;;;;;5073798;27;45537;-59
2023/03/17 02:19:18;;;;;;;;;10.67;10.33;;;;;;;;5074120;27;45494;-59
2023/03/17 02:21:44;;;;;;;;;11.00;11.00;;;;;;;;5071060;27;45568;-58
2023/03/17 02:24:36;;;;;;;;;13.67;13.67;;;;;;;;5073684;28;45427;-59
2023/03/17 02:27:10;;;;;;;;;10.00;9.00;;;;;;;;5070634;27;45462;-59
2023/03/17 02:29:36;;;;;;;;;11.33;10.67;;;;;;;;5074099;27;45603;-59
2023/03/17 02:32:02;;;;;;;;;10.67;10.67;;;;;;;;5073421;27;45620;-59
2023/03/17 02:34:27;;;;;;;;;11.33;11.33;;;;;;;;5073944;27;46079;-59
2023/03/17 02:36:52;;;;;;;;;12.00;12.00;;;;;;;;5073668;27;45573;-59
2023/03/17 02:39:17;;;;;;;;;12.33;12.33;;;;;;;;5073317;27;45549;-59
2023/03/17 02:41:43;;;;;;;;;11.33;10.33;;;;;;;;5063972;27;45393;-59
2023/03/17 02:44:08;;;;;;;;;12.00;12.00;;;;;;;;5069221;28;45525;-59
2023/03/17 02:46:34;;;;;;;;;10.67;10.67;;;;;;;;5055398;28;46044;-59
2023/03/17 02:49:00;;;;;;;;;15.67;13.33;;;;;;;;5073605;27;45546;-59
2023/03/17 02:51:25;;;;;;;;;13.00;9.33;;;;;;;;5071588;27;45771;-59
2023/03/17 02:53:51;;;;;;;;;11.00;11.00;;;;;;;;5064965;28;45530;-58
2023/03/17 02:56:16;;;;;;;;;14.00;11.00;;;;;;;;5073174;27;45964;-59
2023/03/17 02:58:41;;;;;;;;;15.00;12.00;;;;;;;;5073513;27;45506;-58
2023/03/17 03:01:07;;;;;;;;;11.67;11.67;;;;;;;;5073505;28;46125;-59
2023/03/17 03:03:33;;;;;;;;;11.67;11.67;;;;;;;;5073247;28;45453;-58
2023/03/17 03:05:58;;;;;;;;;12.33;11.00;;;;;;;;5073063;27;46086;-59
2023/03/17 03:08:24;;;;;;;;;13.33;11.33;;;;;;;;5055093;28;45419;-57
2023/03/17 03:10:49;;;;;;;;;12.67;12.67;;;;;;;;5059522;27;45538;-59
2023/03/17 03:13:14;;;;;;;;;13.33;13.33;;;;;;;;5064789;28;45596;-59
2023/03/17 03:15:40;;;;;;;;;11.33;10.00;;;;;;;;5072969;27;45473;-59
2023/03/17 03:18:05;;;;;;;;;15.00;14.00;;;;;;;;5073137;27;45606;-58
2023/03/17 03:20:31;;;;;;;;;13.00;13.00;;;;;;;;5073209;27;45479;-59
2023/03/17 03:22:56;;;;;;;;;7.00;6.00;;;;;;;;5073582;27;45558;-59
2023/03/17 03:25:21;;;;;;;;;15.33;14.00;;;;;;;;5072935;28;45525;-59
2023/03/17 03:27:46;;;;;;;;;14.00;14.00;;;;;;;;5073104;27;45525;-59
2023/03/17 03:30:12;;;;;;;;;12.00;12.00;;;;;;;;5072769;27;45546;-58
2023/03/17 03:32:37;;;;;;;;;14.00;12.00;;;;;;;;5073264;28;45492;-59
2023/03/17 03:35:03;;;;;;;;;13.67;13.67;;;;;;;;5075562;27;46665;-58
2023/03/17 03:37:28;;;;;;;;;13.00;13.00;;;;;;;;5076674;27;45722;-58
2023/03/17 03:39:53;;;;;;;;;13.00;12.00;;;;;;;;5076644;27;45531;-57
2023/03/17 03:42:18;;;;;;;;;12.67;11.00;;;;;;;;5062336;28;45495;-57
2023/03/17 03:44:44;;;;;;;;;11.67;11.67;;;;;;;;5062386;28;46350;-57
2023/03/17 03:47:09;;;;;;;;;13.33;11.00;;;;;;;;5076504;27;45541;-59
2023/03/17 03:49:34;;;;;;;;;13.33;13.33;;;;;;;;5057638;28;45474;-59
2023/03/17 03:51:59;;;;;;;;;10.67;10.67;;;;;;;;5075913;27;45605;-59
2023/03/17 03:54:25;;;;;;;;;11.00;10.33;;;;;;;;5076143;27;46200;-59
2023/03/17 03:56:50;;;;;;;;;13.00;11.67;;;;;;;;5076197;27;45371;-59
2023/03/17 03:59:15;;;;;;;;;11.67;11.00;;;;;;;;5076388;27;45581;-59
2023/03/17 04:01:40;;;;;;;;;12.33;12.00;;;;;;;;5076250;27;45449;-59
2023/03/17 04:04:06;;;;;;;;;11.00;11.00;;;;;;;;5076039;27;46095;-58
2023/03/17 04:06:31;;;;;;;;;12.00;12.00;;;;;;;;5076012;27;46191;-59
2023/03/17 04:08:56;;;;;;;;;11.33;9.67;;;;;;;;5076306;27;45480;-58
2023/03/17 04:11:21;;;;;;;;;16.00;13.67;;;;;;;;5071543;27;45474;-59
2023/03/17 04:13:47;;;;;;;;;11.67;11.00;;;;;;;;5076058;27;46295;-59
2023/03/17 04:16:12;;;;;;;;;12.67;11.00;;;;;;;;5076015;27;45454;-59
2023/03/17 04:18:37;;;;;;;;;10.00;10.00;;;;;;;;5075946;27;45515;-59
2023/03/17 04:21:02;;;;;;;;;12.33;12.33;;;;;;;;5076110;27;45423;-59
2023/03/17 04:23:27;;;;;;;;;13.67;12.33;;;;;;;;5075624;27;45509;-59
2023/03/17 04:25:53;;;;;;;;;10.00;9.00;;;;;;;;5075832;27;45571;-59
2023/03/17 04:28:19;;;;;;;;;11.00;10.67;;;;;;;;5075924;27;45521;-59
2023/03/17 04:30:45;;;;;;;;;11.00;11.00;;;;;;;;5057292;27;45594;-58
2023/03/17 04:33:10;;;;;;;;;13.67;11.00;;;;;;;;5057408;28;47608;-58
2023/03/17 04:35:36;;;;;;;;;11.00;11.00;;;;;;;;5057582;27;45493;-58
2023/03/17 04:38:01;;;;;;;;;10.00;10.00;;;;;;;;5075611;28;45399;-59
2023/03/17 04:40:26;;;;;;;;;11.33;11.33;;;;;;;;5066237;27;45645;-59
2023/03/17 04:42:52;;;;;;;;;13.00;13.00;;;;;;;;5060907;27;45733;-59
2023/03/17 04:45:17;;;;;;;;;10.33;10.33;;;;;;;;5074608;27;45512;-58
2023/03/17 04:47:44;;;;;;;;;11.67;11.33;;;;;;;;5075715;27;45462;-59
2023/03/17 04:50:10;;;;;;;;;10.00;10.00;;;;;;;;5075601;27;45444;-59
2023/03/17 04:52:35;;;;;;;;;10.67;10.67;;;;;;;;5074917;27;45476;-58
2023/03/17 04:55:00;;;;;;;;;10.33;10.33;;;;;;;;5075495;27;45497;-59
2023/03/17 04:57:26;;;;;;;;;10.67;10.67;;;;;;;;5075422;27;45680;-59
2023/03/17 04:59:51;;;;;;;;;12.67;10.33;;;;;;;;5073215;27;45342;-59
2023/03/17 05:02:17;;;;;;;;;10.00;10.00;;;;;;;;5074494;27;45476;-58
2023/03/17 05:04:43;;;;;;;;;11.00;11.00;;;;;;;;5073611;27;45747;-59
2023/03/17 05:07:09;;;;;;;;;11.33;11.33;;;;;;;;5075270;27;45487;-59
2023/03/17 05:09:34;;;;;;;;;9.00;9.00;;;;;;;;5068371;28;45631;-59
2023/03/17 05:11:59;;;;;;;;;10.33;10.33;;;;;;;;5065976;27;46179;-59
2023/03/17 05:14:25;;;;;;;;;13.67;11.33;;;;;;;;5067178;28;45596;-59
2023/03/17 05:16:50;;;;;;;;;11.00;11.00;;;;;;;;5074853;27;45543;-58
2023/03/17 05:19:16;;;;;;;;;11.50;10.50;;;;;;;;5075037;27;45473;-59
2023/03/17 05:21:42;;;;;;;;;13.33;12.00;;;;;;;;5074780;27;46498;-59
2023/03/17 05:24:08;;;;;;;;;9.00;9.00;;;;;;;;5074722;27;45473;-59
2023/03/17 05:26:33;;;;;;;;;13.00;10.33;;;;;;;;5074715;27;45483;-59
2023/03/17 05:28:58;;;;;;;;;11.00;11.00;;;;;;;;5074995;27;45513;-59
2023/03/17 05:31:23;;;;;;;;;12.33;9.67;;;;;;;;5074476;27;46311;-58
2023/03/17 05:33:49;;;;;;;;;9.33;9.00;;;;;;;;5074695;27;45591;-59
2023/03/17 05:36:15;;;;;;;;;12.67;10.00;;;;;;;;5075036;27;45569;-59
2023/03/17 05:38:41;;;;;;;;;8.67;8.67;;;;;;;;5074292;27;45482;-59
2023/03/17 05:41:06;;;;;;;;;6.33;6.33;;;;;;;;5069459;27;45929;-58
2023/03/17 05:43:31;;;;;;;;;9.00;9.00;;;;;;;;5035248;28;45490;-59
2023/03/17 05:45:56;;;;;;;;;7.33;7.33;;;;;;;;5052532;27;45404;-57
2023/03/17 05:48:21;;;;;;;;;10.00;9.00;;;;;;;;5074310;27;45466;-56
2023/03/17 05:50:47;;;;;;;;;11.00;10.00;;;;;;;;5074100;27;45510;-58
2023/03/17 05:53:12;;;;;;;;;9.33;9.33;;;;;;;;5074399;27;45469;-59
2023/03/17 05:55:37;;;;;;;;;9.00;9.00;;;;;;;;5074426;27;45535;-59
2023/03/17 05:58:04;;;;;;;;;10.00;10.00;;;;;;;;5073509;27;45535;-59
2023/03/17 06:00:30;;;;;;;;;9.00;9.00;;;;;;;;5073939;27;45510;-58
2023/03/17 06:02:55;;;;;;;;;9.00;9.00;;;;;;;;5055648;27;45400;-58
2023/03/17 06:05:21;;;;;;;;;6.67;6.67;;;;;;;;5074317;27;45499;-59
2023/03/17 06:07:46;;;;;;;;;9.00;9.00;;;;;;;;5074181;27;45765;-59
2023/03/17 06:10:12;;;;;;;;;6.00;6.00;;;;;;;;5064601;28;45512;-59
2023/03/17 06:12:37;;;;;;;;;9.00;6.00;;;;;;;;5065377;27;45472;-59
2023/03/17 06:15:04;;;;;;;;;10.00;8.33;;;;;;;;5059026;27;45567;-59
2023/03/17 06:17:29;;;;;;;;;6.00;6.00;;;;;;;;5064296;28;45626;-59
2023/03/17 06:19:54;;;;;;;;;10.67;10.00;;;;;;;;5072517;27;45411;-58
2023/03/17 06:22:19;;;;;;;;;9.67;7.33;;;;;;;;5055575;28;45470;-59
2023/03/17 06:24:45;;;;;;;;;11.00;9.00;;;;;;;;5074198;27;45451;-59
2023/03/17 06:27:11;;;;;;;;;12.00;7.67;;;;;;;;5064913;27;45450;-59
2023/03/17 06:29:37;;;;;;;;;11.67;11.67;;;;;;;;5045231;28;47582;-59
2023/03/17 06:32:02;;;;;;;;;8.00;8.00;;;;;;;;5053700;28;45794;-59
2023/03/17 06:34:28;;;;;;;;;11.33;9.67;;;;;;;;5073636;28;45429;-59
2023/03/17 06:36:53;;;;;;;;;10.33;9.33;;;;;;;;5073470;28;45621;-59
2023/03/17 06:39:18;;;;;;;;;10.67;10.67;;;;;;;;5067288;27;45458;-59
2023/03/17 06:41:43;;;;;;;;;14.00;10.00;;;;;;;;5055644;28;45506;-59
2023/03/17 06:44:09;;;;;;;;;9.00;9.00;;;;;;;;5069061;27;45549;-59
2023/03/17 06:46:34;;;;;;;;;6.33;6.33;;;;;;;;5055468;27;45494;-59
2023/03/17 06:49:00;;;;;;;;;7.33;7.33;;;;;;;;5048943;28;47663;-59
2023/03/17 06:51:26;;;;;;;;;9.00;7.33;;;;;;;;5067001;27;45442;-59
2023/03/17 06:53:51;;;;;;;;;10.33;7.67;;;;;;;;5072566;27;46183;-59
2023/03/17 06:56:16;;;;;;;;;7.33;7.00;;;;;;;;5055809;27;45658;-59
2023/03/17 06:58:41;;;;;;;;;7.67;7.67;;;;;;;;5066730;27;46283;-59
2023/03/17 07:01:07;;;;;;;;;9.00;9.00;;;;;;;;5072049;28;45432;-59
2023/03/17 07:03:32;;;;;;;;;7.33;7.33;;;;;;;;5070024;28;45617;-59
2023/03/17 07:05:58;;;;;;;;;7.33;7.33;;;;;;;;5061764;28;45572;-60
2023/03/17 07:08:23;;;;;;;;;7.67;7.67;;;;;;;;5072911;27;45572;-63
2023/03/17 07:10:50;;;;;;;;;11.00;11.00;;;;;;;;5077067;27;45609;-60
2023/03/17 07:13:15;;;;;;;;;8.67;8.00;;;;;;;;5077155;27;45564;-60
2023/03/17 07:15:41;;;;;;;;;5.67;5.33;;;;;;;;5059695;28;45438;-62
2023/03/17 07:18:07;;;;;;;;;6.67;6.67;;;;;;;;5056303;27;45587;-62
2023/03/17 07:20:32;;;;;;;;;8.67;8.67;;;;;;;;5044660;27;45559;-59
2023/03/17 07:22:58;;;;;;;;;9.33;7.33;;;;;;;;5077096;27;45450;-60
2023/03/17 07:25:24;;;;;;;;;6.00;6.00;;;;;;;;5077028;27;45580;-60
2023/03/17 07:27:50;;;;;;;;;6.67;6.67;;;;;;;;5067275;27;45577;-56
2023/03/17 07:30:17;;;;;;;;;6.67;6.67;;;;;;;;5056472;28;45578;-61
2023/03/17 07:32:43;;;;;;;;;8.33;6.33;;;;;;;;5048580;28;45583;-58
2023/03/17 07:35:09;;;;;;;;;10.33;7.33;;;;;;;;5072347;27;45502;-59
2023/03/17 07:37:34;;;;;;;;;6.00;6.00;;;;;;;;5075179;27;46157;-58
2023/03/17 07:39:59;;;;;;;;;10.67;7.33;;;;;;;;5065393;27;45679;-58
2023/03/17 07:42:27;;;;;;;;;9.00;6.67;;;;;;;;5059877;27;45640;-58
2023/03/17 07:44:52;;;;;;;;;8.00;6.33;;;;;;;;5075701;27;45566;-58
2023/03/17 07:47:18;;;;;;;;;9.67;9.00;;;;;;;;5075651;27;45576;-58
2023/03/17 07:49:43;;;;;;;;;9.00;8.33;;;;;;;;5072548;27;45393;-58
2023/03/17 07:52:09;;;;;;;;;7.33;7.33;;;;;;;;5075805;27;45427;-58
2023/03/17 07:54:35;;;;;;;;;10.00;6.00;;;;;;;;5074999;27;45502;-59
2023/03/17 07:57:00;;;;;;;;;8.00;8.00;;;;;;;;5075501;27;46088;-59
2023/03/17 07:59:26;;;;;;;;;5.33;5.33;;;;;;;;5075455;27;45576;-59
2023/03/17 08:01:51;;;;;;;;;10.67;8.33;;;;;;;;5075986;27;45490;-59
2023/03/17 08:04:17;;;;;;;;;5.67;5.67;;;;;;;;5075866;27;45594;-59
2023/03/17 08:06:42;;;;;;;;;25.33;23.33;;;;;;;;5057407;28;47768;-59
2023/03/17 08:09:09;;;;;;;;;9.67;9.67;;;;;;;;5075590;27;45490;-59
2023/03/17 08:11:35;;;;;;;;;13.67;12.33;;;;;;;;5075580;27;45521;-59
2023/03/17 08:14:01;;;;;;;;;7.67;7.00;;;;;;;;5075550;27;45473;-59
2023/03/17 08:16:27;;;;;;;;;10.00;6.67;;;;;;;;5064552;27;45420;-59
2023/03/17 08:18:52;;;;;;;;;7.33;7.33;;;;;;;;5068390;27;45574;-59
2023/03/17 08:21:17;;;;;;;;;11.00;10.00;;;;;;;;5070086;27;45534;-59
2023/03/17 08:23:42;;;;;;;;;8.33;6.33;;;;;;;;5075444;27;45485;-59
2023/03/17 08:26:07;;;;;;;;;6.67;6.67;;;;;;;;5075184;27;45496;-59
2023/03/17 08:28:33;;;;;;;;;13.00;11.33;;;;;;;;5075201;28;45478;-59
2023/03/17 08:31:07;;;;;;;;;11.00;10.00;;;;;;;;5074922;27;45442;-59
2023/03/17 08:33:32;;;;;;;;;7.33;7.33;;;;;;;;5074915;27;45492;-59
2023/03/17 08:35:57;;;;;;;;;9.00;6.33;;;;;;;;5074719;27;46422;-59
2023/03/17 08:38:23;;;;;;;;;6.33;6.00;;;;;;;;5056130;28;45499;-59
2023/03/17 08:40:49;;;;;;;;;5.00;5.00;;;;;;;;5072813;27;45609;-59
2023/03/17 08:43:15;;;;;;;;;5.00;5.00;;;;;;;;5063184;27;45624;-59
2023/03/17 08:45:40;;;;;;;;;5.00;5.00;;;;;;;;5069609;27;45855;-58
2023/03/17 08:48:06;;;;;;;;;5.33;5.00;;;;;;;;5074841;27;45436;-59
2023/03/17 08:50:31;;;;;;;;;8.67;5.00;;;;;;;;5074948;27;45582;-59
2023/03/17 08:52:56;;;;;;;;;6.00;6.00;;;;;;;;5074428;27;45687;-60
2023/03/17 08:55:21;;;;;;;;;6.00;6.00;;;;;;;;5056802;28;46947;-59
2023/03/17 08:57:47;;;;;;;;;7.00;6.33;;;;;;;;5074616;27;45613;-59
2023/03/17 09:00:14;;;;;;;;;4.00;4.00;;;;;;;;5075085;27;45493;-60
2023/03/17 09:02:41;;;;;;;;;5.00;5.00;;;;;;;;5074876;27;45524;-60
2023/03/17 09:05:08;;;;;;;;;6.00;6.00;;;;;;;;5074516;27;45583;-59
2023/03/17 09:07:33;;;;;;;;;6.67;6.00;;;;;;;;5074494;27;45505;-60
2023/03/17 09:09:59;;;;;;;;;4.33;4.00;;;;;;;;5074518;27;45462;-60
2023/03/17 09:12:24;;;;;;;;;4.00;4.00;;;;;;;;5074436;27;45523;-59
2023/03/17 09:14:50;;;;;;;;;6.67;6.33;;;;;;;;5074144;27;46203;-59
2023/03/17 09:17:15;;;;;;;;;9.33;6.00;;;;;;;;5053428;27;45573;-59
2023/03/17 09:19:42;;;;;;;;;6.67;6.67;;;;;;;;5068601;27;45433;-59
2023/03/17 09:22:10;;;;;;;;;5.00;5.00;;;;;;;;5074481;27;45596;-59
2023/03/17 09:24:36;;;;;;;;;5.33;5.33;;;;;;;;5073977;27;45514;-58
2023/03/17 09:27:01;;;;;;;;;7.67;6.00;;;;;;;;5073926;27;45505;-58
2023/03/17 09:29:26;;;;;;;;;4.33;4.33;;;;;;;;5074195;27;45553;-58
2023/03/17 09:31:53;;;;;;;;;5.33;4.00;;;;;;;;5073465;28;45561;-59
2023/03/17 09:34:18;;;;;;;;;5.00;4.00;;;;;;;;5074155;27;45525;-59
2023/03/17 09:36:43;;;;;;;;;3.00;3.00;;;;;;;;5074009;27;45463;-59
2023/03/17 09:39:08;;;;;;;;;6.00;4.33;;;;;;;;5055944;27;45497;-59
2023/03/17 09:41:47;;;;;;;;;5.00;5.00;;;;;;;;5065494;27;45538;-58
2023/03/17 09:44:31;;;;;;;;;4.00;4.00;;;;;;;;5070213;27;45474;-58
2023/03/17 09:47:01;;;;;;;;;2.67;2.67;;;;;;;;5066984;27;45471;-58
2023/03/17 09:49:34;;;;;;;;;4.33;4.33;;;;;;;;5074182;27;45438;-59
2023/03/17 09:52:00;;;;;;;;;7.67;5.67;;;;;;;;5074340;27;45518;-59
2023/03/17 09:54:30;;;;;;;;;4.00;4.00;;;;;;;;5073484;27;45541;-58
2023/03/17 09:57:07;;;;;;;;;5.33;5.33;;;;;;;;5055368;27;45543;-59
2023/03/17 09:59:35;;;;;;;;;4.00;4.00;;;;;;;;5073976;27;45446;-59
2023/03/17 10:02:01;;;;;;;;;6.00;5.00;;;;;;;;5073798;27;45525;-59
2023/03/17 10:04:27;;;;;;;;;5.00;5.00;;;;;;;;5073392;27;46184;-58
2023/03/17 10:06:56;;;;;;;;;3.67;3.67;;;;;;;;5073698;27;45566;-59
2023/03/17 10:09:21;;;;;;;;;9.33;7.00;;;;;;;;5073499;27;45529;-58
2023/03/17 10:11:49;;;;;;;;;6.67;6.67;;;;;;;;5073399;27;45572;-58
2023/03/17 10:14:22;;;;;;;;;4.67;4.67;;;;;;;;5073346;27;45492;-59
2023/03/17 10:16:47;;;;;;;;;3.00;2.33;;;;;;;;5059228;28;45527;-58
2023/03/17 10:19:18;;;;;;;;;3.00;3.00;;;;;;;;5055715;28;45446;-58
2023/03/17 10:21:48;;;;;;;;;0.33;0.33;;;;;;;;5073179;27;45576;-59
2023/03/17 10:24:13;;;;;;;;;3.67;3.67;;;;;;;;5073331;27;45596;-58
2023/03/17 10:26:45;;;;;;;;;2.67;2.67;;;;;;;;5054657;28;45694;-59
2023/03/17 10:29:13;;;;;;;;;3.00;3.00;;;;;;;;5055581;27;45502;-58
2023/03/17 10:31:38;;;;;;;;;3.00;3.00;;;;;;;;5066487;27;45579;-59
2023/03/17 10:34:14;;;;;;;;;3.00;2.00;;;;;;;;5073155;27;45426;-59
2023/03/17 10:36:43;;;;;;;;;2.00;2.00;;;;;;;;5060884;28;45531;-59
2023/03/17 10:39:13;;;;;;;;;3.00;3.00;;;;;;;;5073210;27;45671;-59
2023/03/17 10:41:40;;;;;;;;;3.00;2.67;;;;;;;;5064019;28;45496;-59
2023/03/17 10:44:21;;;;;;;;;3.67;3.33;;;;;;;;5066597;27;46980;-58
2023/03/17 10:46:53;;;;;;;;;4.00;4.00;;;;;;;;5073225;27;45784;-59
2023/03/17 10:49:21;;;;;;;;;2.00;2.00;;;;;;;;5072838;28;45515;-59
2023/03/17 10:51:49;;;;;;;;;3.00;2.00;;;;;;;;5073068;28;45623;-58
2023/03/17 10:54:16;;;;;;;;;2.00;2.00;;;;;;;;5072850;28;46173;-59
2023/03/17 10:56:45;;;;;;;;;1.00;1.00;;;;;;;;5054354;27;45619;-58
2023/03/17 10:59:18;;;;;;;;;2.00;2.00;;;;;;;;5073049;27;45427;-57
2023/03/17 11:01:48;;;;;;;;;2.67;2.67;;;;;;;;5062331;27;45485;-59
2023/03/17 11:04:31;;;;;;;;;2.67;1.33;;;;;;;;5058348;27;45513;-58
2023/03/17 11:06:58;;;;;;;;;3.67;3.67;;;;;;;;5047077;27;45568;-59
2023/03/17 11:09:25;;;;;;;;;1.33;1.33;;;;;;;;5072618;27;45478;-59
2023/03/17 11:12:10;;;;;;;;;2.00;2.00;;;;;;;;5072473;27;45529;-58
2023/03/17 11:14:36;;;;;;;;;3.00;2.33;;;;;;;;5040095;27;45568;-59
2023/03/17 11:17:21;;;;;;;;;3.67;3.67;;;;;;;;5072137;27;45546;-58
2023/03/17 11:20:14;;;;;;;;;3.00;3.00;;;;;;;;5061278;27;45579;-59
2023/03/17 11:22:41;;;;;;;;;3.00;3.00;;;;;;;;5072661;27;45812;-58
2023/03/17 11:25:06;;;;;;;;;3.67;3.67;;;;;;;;5072159;27;47121;-59
2023/03/17 11:27:34;;;;;;;;;3.00;3.00;;;;;;;;5053955;27;45702;-58
2023/03/17 11:30:13;;;;;;;;;2.33;2.33;;;;;;;;5072065;27;45506;-60
2023/03/17 11:32:57;;;;;;;;;2.67;2.00;;;;;;;;5064115;27;45591;-59
2023/03/17 11:35:29;;;;;;;;;6.00;6.00;;;;;;;;5072035;27;45586;-60
2023/03/17 11:38:12;;;;;;;;;4.00;4.00;;;;;;;;5072182;27;45549;-58
2023/03/17 11:40:38;;;;;;;;;2.67;2.00;;;;;;;;5071287;27;45377;-59
2023/03/17 11:43:19;;;;;;;;;5.67;5.67;;;;;;;;5058424;27;45673;-59
2023/03/17 11:45:50;;;;;;;;;4.33;3.33;;;;;;;;5071950;27;47148;-59
2023/03/17 11:48:22;;;;;;;;;3.00;3.00;;;;;;;;5054009;27;45535;-59
2023/03/17 11:51:07;;;;;;;;;5.00;5.00;;;;;;;;5053788;27;45502;-60
2023/03/17 11:53:57;;;;;;;;;4.00;4.00;;;;;;;;5053748;27;45413;-59
2023/03/17 11:56:37;;;;;;;;;7.00;5.33;;;;;;;;5056804;27;46814;-59
2023/03/17 11:59:04;;;;;;;;;7.00;4.00;;;;;;;;5057193;28;45948;-59
2023/03/17 12:01:34;;;;;;;;;5.00;5.00;;;;;;;;5050162;28;45485;-59
2023/03/17 12:04:09;;;;;;;;;5.00;5.00;;;;;;;;5041962;27;45469;-61
2023/03/17 12:06:42;;;;;;;;;4.33;3.67;;;;;;;;5048129;28;45589;-60
2023/03/17 12:09:16;;;;;;;;;5.00;5.00;;;;;;;;5050892;27;45597;-60
2023/03/17 12:11:44;;;;;;;;;7.33;6.33;;;;;;;;5072754;27;45546;-60
2023/03/17 12:14:26;;;;;;;;;11.00;11.00;;;;;;;;5057207;27;45526;-60
2023/03/17 12:17:05;;;;;;;;;5.00;5.00;;;;;;;;5047668;28;46304;-61
2023/03/17 12:19:43;;;;;;;;;6.00;6.00;;;;;;;;5033072;28;45499;-59
2023/03/17 12:22:20;;;;;;;;;7.00;6.00;;;;;;;;5043216;27;45636;-59
2023/03/17 12:25:00;;;;;;;;;7.00;7.00;;;;;;;;5024024;28;45621;-59
2023/03/17 12:27:27;;;;;;;;;6.67;5.67;;;;;;;;5045515;27;45503;-59
2023/03/17 12:29:57;;;;;;;;;5.00;5.00;;;;;;;;5054011;28;45518;-59
2023/03/17 12:32:35;;;;;;;;;6.33;6.33;;;;;;;;5054528;28;45516;-58
2023/03/17 12:35:19;;;;;;;;;7.67;5.67;;;;;;;;5031786;28;45549;-58
2023/03/17 12:37:45;;;;;;;;;5.00;5.00;;;;;;;;5022409;28;45579;-59
2023/03/17 12:40:19;;;;;;;;;5.00;5.00;;;;;;;;5033385;28;45629;-59
2023/03/17 12:43:11;;;;;;;;;5.33;5.33;;;;;;;;5041801;28;45598;-59
2023/03/17 12:45:44;;;;;;;;;6.33;6.33;;;;;;;;5056268;28;45680;-59
2023/03/17 12:48:28;;;;;;;;;5.33;5.33;;;;;;;;5042142;28;47628;-59
2023/03/17 12:51:11;;;;;;;;;6.67;5.00;;;;;;;;5027219;28;46050;-59
2023/03/17 12:53:50;;;;;;;;;5.00;5.00;;;;;;;;5055859;28;45516;-59
2023/03/17 12:56:15;;;;;;;;;5.00;4.00;;;;;;;;5055514;28;45753;-59
2023/03/17 12:58:51;;;;;;;;;5.00;5.00;;;;;;;;5055021;28;45488;-59
2023/03/17 13:01:22;;;;;;;;;5.00;5.00;;;;;;;;5055448;28;45448;-59
2023/03/17 13:03:53;;;;;;;;;10.67;7.33;;;;;;;;5055464;28;45416;-59
2023/03/17 13:06:20;;;;;;;;;7.00;5.67;;;;;;;;5051066;28;45578;-59
2023/03/17 13:08:49;;;;;;;;;10.67;7.00;;;;;;;;5033023;28;45569;-59
2023/03/17 13:11:14;;;;;;;;;7.00;7.00;;;;;;;;5031817;28;45532;-59
2023/03/17 13:13:43;;;;;;;;;7.33;6.00;;;;;;;;5041528;28;45569;-59
2023/03/17 13:16:27;;;;;;;;;6.33;6.33;;;;;;;;5055300;28;45418;-59
2023/03/17 13:19:06;;;;;;;;;5.33;5.33;;;;;;;;5028193;28;45497;-60
2023/03/17 13:21:31;;;;;;;;;5.67;5.67;;;;;;;;5039093;28;46594;-59
2023/03/17 13:24:15;;;;;;;;;8.33;6.00;;;;;;;;5042493;28;45427;-59
2023/03/17 13:26:52;;;;;;;;;8.67;6.33;;;;;;;;5055082;28;45503;-57
2023/03/17 13:29:37;;;;;;;;;6.33;5.67;;;;;;;;5054591;28;46174;-59
2023/03/17 13:32:15;;;;;;;;;6.33;6.00;;;;;;;;5070071;27;45521;-59
2023/03/17 13:34:46;;;;;;;;;6.00;5.00;;;;;;;;5075180;27;45431;-59
2023/03/17 13:37:32;;;;;;;;;6.00;6.00;;;;;;;;5074859;27;45490;-59
2023/03/17 13:40:16;;;;;;;;;7.33;7.33;;;;;;;;5074824;27;45561;-59
2023/03/17 13:43:10;;;;;;;;;38.25;33.25;;;;;;;;5055712;28;45461;-59
2023/03/17 13:45:40;;;;;;;;;8.33;7.33;;;;;;;;5019780;27;45524;-59
2023/03/17 13:48:28;;;;;;;;;10.00;6.67;;;;;;;;5072306;27;45434;-59
2023/03/17 13:51:20;;;;;;;;;9.67;7.67;;;;;;;;5061709;27;45621;-59
2023/03/17 13:53:54;;;;;;;;;6.00;6.00;;;;;;;;5071934;28;45404;-57
2023/03/17 13:56:37;;;;;;;;;9.00;8.67;;;;;;;;5063373;28;45727;-59
2023/03/17 13:59:29;;;;;;;;;8.67;7.67;;;;;;;;5074889;27;45735;-59
2023/03/17 14:01:58;;;;;;;;;7.00;7.00;;;;;;;;5038982;28;46221;-59
2023/03/17 14:04:25;;;;;;;;;8.67;7.33;;;;;;;;5058015;28;45577;-59
2023/03/17 14:06:52;;;;;;;;;9.00;8.00;;;;;;;;5055794;28;45389;-59
2023/03/17 14:09:27;;;;;;;;;9.67;9.00;;;;;;;;5074591;27;45539;-59
2023/03/17 14:11:53;;;;;;;;;13.67;12.00;;;;;;;;5074295;27;46015;-59
2023/03/17 14:14:18;;;;;;;;;10.00;8.33;;;;;;;;5074558;27;45558;-59
2023/03/17 14:16:46;;;;;;;;;15.00;11.00;;;;;;;;5074570;27;45427;-59
2023/03/17 14:19:26;;;;;;;;;8.33;7.33;;;;;;;;5074403;27;45553;-59
2023/03/17 14:21:51;;;;;;;;;11.00;9.67;;;;;;;;5074033;27;45448;-59
2023/03/17 14:24:18;;;;;;;;;12.67;11.67;;;;;;;;5074456;28;45692;-58
2023/03/17 14:26:43;;;;;;;;;11.00;11.00;;;;;;;;5074526;27;45525;-58
2023/03/17 14:29:12;;;;;;;;;12.33;9.67;;;;;;;;5074451;27;45514;-59
2023/03/17 14:31:38;;;;;;;;;10.67;10.67;;;;;;;;5073841;28;46216;-58
2023/03/17 14:34:03;;;;;;;;;13.00;10.00;;;;;;;;5067821;28;45474;-58
2023/03/17 14:36:31;;;;;;;;;12.33;11.00;;;;;;;;5063793;27;45402;-59
2023/03/17 14:38:56;;;;;;;;;12.00;11.00;;;;;;;;5073012;27;45383;-58